MST,Max TemperatureF,Mean TemperatureF,Min TemperatureF,Max Dew PointF,MeanDew PointF,Min DewpointF,Max Humidity, Mean Humidity, Min Humidity, Max Sea Level PressureIn, Mean Sea Level PressureIn, Min Sea Level PressureIn, Max VisibilityMiles, Mean VisibilityMiles, Min VisibilityMiles, Max Wind SpeedMPH, Mean Wind SpeedMPH, Max Gust SpeedMPH,PrecipitationIn, CloudCover, Events, WindDirDegrees
2013-1-1,28,15,2,12,6,-1,83,67,50,30.56,30.43,30.32,10,10,10,12,5,14,0.00,1,,171
2013-1-2,20,10,-1,5,-1,-5,87,71,54,30.69,30.62,30.51,10,10,10,12,6,13,0.00,0,,180
2013-1-3,28,14,1,7,0,-6,72,56,33,30.59,30.50,30.39,10,10,10,14,7,,0.00,0,,186
2013-1-4,34,21,7,12,6,0,67,53,38,30.44,30.37,30.28,10,10,10,23,9,28,0.00,0,,209
2013-1-5,31,21,10,16,9,4,83,66,49,30.50,30.40,30.27,10,10,10,17,10,24,0.00,0,,195
2013-1-6,38,28,18,23,17,9,69,61,52,30.23,30.10,29.99,10,10,10,18,11,23,0.00,5,,189
2013-1-7,35,26,17,22,16,11,80,67,54,30.10,30.00,29.92,10,10,10,26,15,35,0.00,4,,197
2013-1-8,37,32,26,22,19,17,68,58,47,30.12,30.06,29.92,10,10,10,26,13,33,0.00,4,,207
2013-1-9,43,35,26,25,22,19,75,62,49,30.15,29.92,29.59,10,10,9,29,14,38,0.00,0,,205
2013-1-10,40,25,9,30,21,4,100,74,48,29.79,29.54,29.43,10,2,0,23,12,31,0.10,8,Fog-Snow,35
2013-1-11,9,4,-2,2,0,-5,95,84,73,30.30,30.02,29.66,,,,6,10,7,T,8,Snow,58
2013-1-12,5,-5,-15,-2,-10,-19,90,80,70,30.46,30.37,30.32,,,,14,6,15,T,3,,186
2013-1-13,2,-7,-16,-6,-12,-18,87,79,71,30.53,30.47,30.09,,,,28,6,31,T,5,,197
2013-1-14,9,-2,-13,2,-6,-18,83,76,68,30.55,30.44,30.05,,,,14,4,15,T,6,Snow,231
2013-1-15,20,12,4,11,7,0,88,77,66,30.62,30.53,30.46,,,,22,9,25,0.00,2,,213
2013-1-16,27,18,8,14,8,3,80,68,55,30.62,30.59,30.54,,,,31,17,35,0.00,0,,208
2013-1-17,30,20,10,15,9,2,68,63,57,30.65,30.56,30.44,,,,26,13,29,0.00,0,,214
2013-1-18,39,30,20,20,14,10,68,54,40,30.43,30.30,30.21,,,,28,19,31,0.00,0,,210
2013-1-19,36,27,18,17,12,7,65,56,46,30.45,30.38,30.28,,,,26,16,31,0.00,0,,203
2013-1-20,34,26,17,19,13,7,65,57,49,30.48,30.41,30.35,,,,20,11,24,0.00,0,,206
2013-1-21,37,29,20,21,15,10,68,58,47,30.37,30.29,30.19,,,,26,16,30,0.00,0,,216
2013-1-22,35,26,17,19,12,6,63,55,46,30.32,30.26,30.18,,,,30,12,55,0.00,0,,211
2013-1-23,39,31,22,21,15,10,61,53,44,30.25,30.16,30.05,,,,28,9,31,0.00,1,,179
2013-1-24,44,36,27,26,22,16,78,62,45,30.21,30.09,29.99,,,,25,10,29,0.00,3,,207
2013-1-25,41,33,25,29,25,19,82,69,55,30.23,30.13,30.00,,,,21,8,24,0.00,7,,201
2013-1-26,48,38,27,29,27,24,85,67,49,29.98,29.83,29.70,,,,20,8,20,0.00,2,,180
2013-1-27,31,25,19,28,23,13,100,88,75,29.93,29.81,29.75,,,,28,5,31,0.07,8,Snow,115
2013-1-28,29,21,13,12,11,8,88,69,50,29.99,29.93,29.83,,,,23,10,40,0.00,3,,211
2013-1-29,25,20,15,18,14,11,84,73,62,30.19,29.99,29.80,,,,28,7,43,T,7,Snow,146
2013-1-30,38,27,15,24,20,12,84,68,52,30.12,30.06,30.02,,,,28,11,35,0.00,7,,226
2013-1-31,39,36,33,27,25,22,70,65,59,30.18,30.14,30.09,,,,29,14,36,0.00,7,,225